Terminal Aerodrome Forecast
Issued by NWS Sioux Falls, SD

Home | Current Version | Previous Version | Text Only | Print | Product List | Glossary Off
Versions: 1 2 3 4 5 6 7 8 9 10 11 12 13 14 15

000
FTUS43 KFSD 171121
TAFHON
TAF
KHON 171121Z 1712/1812 16006KT P6SM VCSH BKN100
      TEMPO 1712/1714 -SHRA BKN080
     FM171600 16011G20KT P6SM FEW100
     FM180100 14011KT P6SM SCT200
     FM180700 15013G19KT P6SM SCT080 BKN150=

USA.gov is the U.S. government's official web portal to all federal, state and local government web resources and services.